Terminal Aerodrome Forecast
Issued by NWS Portland, OR

Home | Current Version | Previous Version | Text Only | Print | Product List | Glossary On
Versions: 1 2 3 4 5 6 7 8 9 10 11 12 13 14 15 16 17 18 19 20 21 22 23 24 25 26
000
FTUS46 KPQR 221130
TAFSLE
TAF
KSLE 221130Z 2212/2312 17012KT P6SM -RA SCT045 OVC060
     FM221500 16012G20KT P6SM -RA BKN045 OVC070
     FM221900 16015G25KT 6SM -RA OVC045
     FM230000 17011KT 6SM RA BKN028 OVC035
     FM230500 18012KT 6SM RA OVC035=

USA.gov is the U.S. government's official web portal to all federal, state and local government web resources and services.